sensor_id;sensor_type;location;lat;lon;timestamp;temperature;humidity
2489;DHT22;1255;48.716;9.124;2023-05-15T00:01:29;8.40;99.90
2489;DHT22;1255;48.716;9.124;2023-05-15T00:03:56;8.40;99.90
2489;DHT22;1255;48.716;9.124;2023-05-15T00:06:23;8.40;99.90
2489;DHT22;1255;48.716;9.124;2023-05-15T00:08:49;8.40;99.90
2489;DHT22;1255;48.716;9.124;2023-05-15T00:11:19;8.40;99.90
2489;DHT22;1255;48.716;9.124;2023-05-15T00:13:48;8.30;99.90
2489;DHT22;1255;48.716;9.124;2023-05-15T00:16:14;8.30;99.90
2489;DHT22;1255;48.716;9.124;2023-05-15T00:18:41;8.30;99.90
2489;DHT22;1255;48.716;9.124;2023-05-15T00:21:07;8.30;99.90
2489;DHT22;1255;48.716;9.124;2023-05-15T00:23:34;8.30;99.90
2489;DHT22;1255;48.716;9.124;2023-05-15T00:26:01;8.30;99.90
2489;DHT22;1255;48.716;9.124;2023-05-15T00:28:29;8.30;99.90
2489;DHT22;1255;48.716;9.124;2023-05-15T00:30:56;8.30;99.90
2489;DHT22;1255;48.716;9.124;2023-05-15T00:33:22;8.30;99.90
2489;DHT22;1255;48.716;9.124;2023-05-15T00:35:49;8.40;99.90
2489;DHT22;1255;48.716;9.124;2023-05-15T00:38:16;8.40;99.90
2489;DHT22;1255;48.716;9.124;2023-05-15T00:40:43;8.50;99.90
2489;DHT22;1255;48.716;9.124;2023-05-15T00:43:11;8.50;99.90
2489;DHT22;1255;48.716;9.124;2023-05-15T00:45:41;8.60;99.90
2489;DHT22;1255;48.716;9.124;2023-05-15T00:48:09;8.70;99.90
2489;DHT22;1255;48.716;9.124;2023-05-15T00:50:36;8.70;99.90
2489;DHT22;1255;48.716;9.124;2023-05-15T00:53:04;8.70;99.90
2489;DHT22;1255;48.716;9.124;2023-05-15T00:55:31;8.80;99.90
2489;DHT22;1255;48.716;9.124;2023-05-15T00:58:00;8.80;99.90
2489;DHT22;1255;48.716;9.124;2023-05-15T01:00:27;8.80;99.90
2489;DHT22;1255;48.716;9.124;2023-05-15T01:02:56;8.90;99.90
2489;DHT22;1255;48.716;9.124;2023-05-15T01:05:23;8.90;99.90
2489;DHT22;1255;48.716;9.124;2023-05-15T01:07:54;8.90;99.90
2489;DHT22;1255;48.716;9.124;2023-05-15T01:10:21;8.90;99.90
2489;DHT22;1255;48.716;9.124;2023-05-15T01:12:49;8.90;99.90
2489;DHT22;1255;48.716;9.124;2023-05-15T01:15:18;8.90;99.90
2489;DHT22;1255;48.716;9.124;2023-05-15T01:17:45;9.00;99.90
2489;DHT22;1255;48.716;9.124;2023-05-15T01:20:15;9.00;99.90
2489;DHT22;1255;48.716;9.124;2023-05-15T01:22:49;9.00;99.90
2489;DHT22;1255;48.716;9.124;2023-05-15T01:25:43;8.90;99.90
2489;DHT22;1255;48.716;9.124;2023-05-15T01:28:14;8.90;99.90
2489;DHT22;1255;48.716;9.124;2023-05-15T01:30:44;9.00;99.90
2489;DHT22;1255;48.716;9.124;2023-05-15T01:33:17;9.00;99.90
2489;DHT22;1255;48.716;9.124;2023-05-15T01:35:47;9.00;99.90
2489;DHT22;1255;48.716;9.124;2023-05-15T01:38:18;9.00;99.90
2489;DHT22;1255;48.716;9.124;2023-05-15T01:40:55;9.00;99.90
2489;DHT22;1255;48.716;9.124;2023-05-15T01:43:27;8.90;99.90
2489;DHT22;1255;48.716;9.124;2023-05-15T01:45:55;9.00;99.90
2489;DHT22;1255;48.716;9.124;2023-05-15T01:48:24;9.00;99.90
2489;DHT22;1255;48.716;9.124;2023-05-15T01:50:53;9.00;99.90
2489;DHT22;1255;48.716;9.124;2023-05-15T01:53:23;9.00;99.90
2489;DHT22;1255;48.716;9.124;2023-05-15T01:55:51;9.00;99.90
2489;DHT22;1255;48.716;9.124;2023-05-15T01:58:19;9.00;99.90
2489;DHT22;1255;48.716;9.124;2023-05-15T02:00:47;9.00;99.90
2489;DHT22;1255;48.716;9.124;2023-05-15T02:03:15;9.00;99.90
2489;DHT22;1255;48.716;9.124;2023-05-15T02:05:42;9.00;99.90
2489;DHT22;1255;48.716;9.124;2023-05-15T02:08:10;9.00;99.90
2489;DHT22;1255;48.716;9.124;2023-05-15T02:10:38;9.10;99.90
2489;DHT22;1255;48.716;9.124;2023-05-15T02:13:05;9.10;99.90
2489;DHT22;1255;48.716;9.124;2023-05-15T02:15:33;9.20;99.90
2489;DHT22;1255;48.716;9.124;2023-05-15T02:18:02;9.20;99.90
2489;DHT22;1255;48.716;9.124;2023-05-15T02:20:29;9.20;99.90
2489;DHT22;1255;48.716;9.124;2023-05-15T02:22:55;9.30;99.90
2489;DHT22;1255;48.716;9.124;2023-05-15T02:25:30;9.30;99.90
2489;DHT22;1255;48.716;9.124;2023-05-15T02:28:00;9.30;99.90
2489;DHT22;1255;48.716;9.124;2023-05-15T02:30:37;9.30;99.90
2489;DHT22;1255;48.716;9.124;2023-05-15T02:33:13;9.40;99.90
2489;DHT22;1255;48.716;9.124;2023-05-15T02:35:47;9.30;99.90
2489;DHT22;1255;48.716;9.124;2023-05-15T02:38:19;9.30;99.90
2489;DHT22;1255;48.716;9.124;2023-05-15T02:40:49;9.30;99.90
2489;DHT22;1255;48.716;9.124;2023-05-15T02:43:17;9.30;99.90
2489;DHT22;1255;48.716;9.124;2023-05-15T02:45:45;9.30;99.90
2489;DHT22;1255;48.716;9.124;2023-05-15T02:48:14;9.30;99.90
2489;DHT22;1255;48.716;9.124;2023-05-15T02:50:41;9.20;99.90
2489;DHT22;1255;48.716;9.124;2023-05-15T02:53:09;9.20;99.90
2489;DHT22;1255;48.716;9.124;2023-05-15T02:55:38;9.10;99.90
2489;DHT22;1255;48.716;9.124;2023-05-15T02:58:05;9.10;99.90
2489;DHT22;1255;48.716;9.124;2023-05-15T03:00:32;9.10;99.90
2489;DHT22;1255;48.716;9.124;2023-05-15T03:02:59;9.10;99.90
2489;DHT22;1255;48.716;9.124;2023-05-15T03:05:27;9.10;99.90
2489;DHT22;1255;48.716;9.124;2023-05-15T03:07:53;9.10;99.90
2489;DHT22;1255;48.716;9.124;2023-05-15T03:10:20;9.10;99.90
2489;DHT22;1255;48.716;9.124;2023-05-15T03:12:48;9.20;99.90
2489;DHT22;1255;48.716;9.124;2023-05-15T03:15:15;9.20;99.90
2489;DHT22;1255;48.716;9.124;2023-05-15T03:17:42;9.20;99.90
2489;DHT22;1255;48.716;9.124;2023-05-15T03:20:09;9.30;99.90
2489;DHT22;1255;48.716;9.124;2023-05-15T03:22:37;9.30;99.90
2489;DHT22;1255;48.716;9.124;2023-05-15T03:25:04;9.40;99.90
2489;DHT22;1255;48.716;9.124;2023-05-15T03:27:31;9.40;99.90
2489;DHT22;1255;48.716;9.124;2023-05-15T03:29:58;9.50;99.90
2489;DHT22;1255;48.716;9.124;2023-05-15T03:32:25;9.50;99.90
2489;DHT22;1255;48.716;9.124;2023-05-15T03:34:51;9.60;99.90
2489;DHT22;1255;48.716;9.124;2023-05-15T03:37:18;9.60;99.90
2489;DHT22;1255;48.716;9.124;2023-05-15T03:39:46;9.60;99.90
2489;DHT22;1255;48.716;9.124;2023-05-15T03:42:13;9.70;99.90
2489;DHT22;1255;48.716;9.124;2023-05-15T03:44:39;9.80;99.90
2489;DHT22;1255;48.716;9.124;2023-05-15T03:47:06;9.80;99.90
2489;DHT22;1255;48.716;9.124;2023-05-15T03:49:33;9.90;99.90
2489;DHT22;1255;48.716;9.124;2023-05-15T03:52:00;9.90;99.90
2489;DHT22;1255;48.716;9.124;2023-05-15T03:54:26;10.00;99.90
2489;DHT22;1255;48.716;9.124;2023-05-15T03:56:54;10.00;99.90
2489;DHT22;1255;48.716;9.124;2023-05-15T03:59:22;10.00;99.90
2489;DHT22;1255;48.716;9.124;2023-05-15T04:01:48;10.00;99.90
2489;DHT22;1255;48.716;9.124;2023-05-15T04:04:15;10.00;99.90
2489;DHT22;1255;48.716;9.124;2023-05-15T04:06:42;10.10;99.90
2489;DHT22;1255;48.716;9.124;2023-05-15T04:09:09;10.10;99.90
2489;DHT22;1255;48.716;9.124;2023-05-15T04:11:36;10.10;99.90
2489;DHT22;1255;48.716;9.124;2023-05-15T04:14:04;10.10;99.90
2489;DHT22;1255;48.716;9.124;2023-05-15T04:16:31;10.20;99.90
2489;DHT22;1255;48.716;9.124;2023-05-15T04:18:57;10.20;99.90
2489;DHT22;1255;48.716;9.124;2023-05-15T04:21:24;10.30;99.90
2489;DHT22;1255;48.716;9.124;2023-05-15T04:23:51;10.30;99.90
2489;DHT22;1255;48.716;9.124;2023-05-15T04:26:17;10.40;99.90
2489;DHT22;1255;48.716;9.124;2023-05-15T04:28:44;10.40;99.90
2489;DHT22;1255;48.716;9.124;2023-05-15T04:31:12;10.40;99.90
2489;DHT22;1255;48.716;9.124;2023-05-15T04:33:39;10.50;99.90
2489;DHT22;1255;48.716;9.124;2023-05-15T04:36:07;10.50;99.90
2489;DHT22;1255;48.716;9.124;2023-05-15T04:38:33;10.60;99.90
2489;DHT22;1255;48.716;9.124;2023-05-15T04:41:00;10.60;99.90
2489;DHT22;1255;48.716;9.124;2023-05-15T04:43:27;10.60;99.90
2489;DHT22;1255;48.716;9.124;2023-05-15T04:45:53;10.70;99.90
2489;DHT22;1255;48.716;9.124;2023-05-15T04:48:21;10.70;99.90
2489;DHT22;1255;48.716;9.124;2023-05-15T04:50:48;10.80;99.90
2489;DHT22;1255;48.716;9.124;2023-05-15T04:53:16;10.80;99.90
2489;DHT22;1255;48.716;9.124;2023-05-15T04:55:43;10.80;99.90
2489;DHT22;1255;48.716;9.124;2023-05-15T04:58:09;10.90;99.90
2489;DHT22;1255;48.716;9.124;2023-05-15T05:00:36;11.00;99.90
2489;DHT22;1255;48.716;9.124;2023-05-15T05:03:03;11.00;99.90
2489;DHT22;1255;48.716;9.124;2023-05-15T05:05:31;11.10;99.90
2489;DHT22;1255;48.716;9.124;2023-05-15T05:07:58;11.10;99.90
2489;DHT22;1255;48.716;9.124;2023-05-15T05:10:24;11.20;99.90
2489;DHT22;1255;48.716;9.124;2023-05-15T05:12:51;11.30;99.90
2489;DHT22;1255;48.716;9.124;2023-05-15T05:15:18;11.30;99.90
2489;DHT22;1255;48.716;9.124;2023-05-15T05:17:45;11.30;99.90
2489;DHT22;1255;48.716;9.124;2023-05-15T05:20:11;11.40;99.90
2489;DHT22;1255;48.716;9.124;2023-05-15T05:22:39;11.50;99.90
2489;DHT22;1255;48.716;9.124;2023-05-15T05:25:07;11.50;99.90
2489;DHT22;1255;48.716;9.124;2023-05-15T05:27:34;11.60;99.90
2489;DHT22;1255;48.716;9.124;2023-05-15T05:30:00;11.70;99.90
2489;DHT22;1255;48.716;9.124;2023-05-15T05:32:27;11.80;99.90
2489;DHT22;1255;48.716;9.124;2023-05-15T05:34:54;11.80;99.90
2489;DHT22;1255;48.716;9.124;2023-05-15T05:37:21;11.90;99.90
2489;DHT22;1255;48.716;9.124;2023-05-15T05:39:49;11.90;99.90
2489;DHT22;1255;48.716;9.124;2023-05-15T05:42:15;12.00;99.90
2489;DHT22;1255;48.716;9.124;2023-05-15T05:44:42;12.10;99.90
2489;DHT22;1255;48.716;9.124;2023-05-15T05:47:09;12.10;99.90
2489;DHT22;1255;48.716;9.124;2023-05-15T05:49:35;12.10;99.90
2489;DHT22;1255;48.716;9.124;2023-05-15T05:52:06;12.10;99.90
2489;DHT22;1255;48.716;9.124;2023-05-15T05:54:33;12.20;99.90
2489;DHT22;1255;48.716;9.124;2023-05-15T05:57:01;12.30;99.90
2489;DHT22;1255;48.716;9.124;2023-05-15T05:59:29;12.30;99.90
2489;DHT22;1255;48.716;9.124;2023-05-15T06:01:55;12.30;99.90
2489;DHT22;1255;48.716;9.124;2023-05-15T06:04:22;12.40;99.90
2489;DHT22;1255;48.716;9.124;2023-05-15T06:06:49;12.40;99.90
2489;DHT22;1255;48.716;9.124;2023-05-15T06:09:16;12.30;99.90
2489;DHT22;1255;48.716;9.124;2023-05-15T06:11:43;12.40;99.90
2489;DHT22;1255;48.716;9.124;2023-05-15T06:14:11;12.40;99.90
2489;DHT22;1255;48.716;9.124;2023-05-15T06:16:38;12.40;99.90
2489;DHT22;1255;48.716;9.124;2023-05-15T06:19:06;12.50;99.90
2489;DHT22;1255;48.716;9.124;2023-05-15T06:21:33;12.60;99.90
2489;DHT22;1255;48.716;9.124;2023-05-15T06:24:00;12.70;99.90
2489;DHT22;1255;48.716;9.124;2023-05-15T06:26:29;12.90;99.90
2489;DHT22;1255;48.716;9.124;2023-05-15T06:28:56;13.00;99.90
2489;DHT22;1255;48.716;9.124;2023-05-15T06:31:25;13.10;99.90
2489;DHT22;1255;48.716;9.124;2023-05-15T06:33:52;13.20;99.90
2489;DHT22;1255;48.716;9.124;2023-05-15T06:36:20;13.30;99.90
2489;DHT22;1255;48.716;9.124;2023-05-15T06:38:47;13.40;99.90
2489;DHT22;1255;48.716;9.124;2023-05-15T06:41:14;13.50;99.90
2489;DHT22;1255;48.716;9.124;2023-05-15T06:43:41;13.70;99.90
2489;DHT22;1255;48.716;9.124;2023-05-15T06:46:08;13.80;99.90
2489;DHT22;1255;48.716;9.124;2023-05-15T06:48:37;13.90;99.90
2489;DHT22;1255;48.716;9.124;2023-05-15T06:51:05;13.90;99.90
2489;DHT22;1255;48.716;9.124;2023-05-15T06:53:32;14.00;99.90
2489;DHT22;1255;48.716;9.124;2023-05-15T06:55:59;14.10;99.90
2489;DHT22;1255;48.716;9.124;2023-05-15T06:58:26;14.20;99.90
2489;DHT22;1255;48.716;9.124;2023-05-15T07:00:52;14.30;99.90
2489;DHT22;1255;48.716;9.124;2023-05-15T07:03:19;14.40;99.90
2489;DHT22;1255;48.716;9.124;2023-05-15T07:05:47;14.40;99.90
2489;DHT22;1255;48.716;9.124;2023-05-15T07:08:14;14.50;99.90
2489;DHT22;1255;48.716;9.124;2023-05-15T07:10:40;14.60;99.90
2489;DHT22;1255;48.716;9.124;2023-05-15T07:13:07;14.70;99.90
2489;DHT22;1255;48.716;9.124;2023-05-15T07:15:34;14.80;99.90
2489;DHT22;1255;48.716;9.124;2023-05-15T07:18:00;14.90;99.90
2489;DHT22;1255;48.716;9.124;2023-05-15T07:20:27;15.00;99.90
2489;DHT22;1255;48.716;9.124;2023-05-15T07:22:55;14.90;99.90
2489;DHT22;1255;48.716;9.124;2023-05-15T07:25:22;15.00;99.90
2489;DHT22;1255;48.716;9.124;2023-05-15T07:27:48;15.20;99.90
2489;DHT22;1255;48.716;9.124;2023-05-15T07:30:15;15.30;99.90
2489;DHT22;1255;48.716;9.124;2023-05-15T07:32:42;15.30;99.90
2489;DHT22;1255;48.716;9.124;2023-05-15T07:35:09;15.50;99.90
2489;DHT22;1255;48.716;9.124;2023-05-15T07:37:37;15.60;99.90
2489;DHT22;1255;48.716;9.124;2023-05-15T07:40:06;15.60;99.90
2489;DHT22;1255;48.716;9.124;2023-05-15T07:42:33;15.80;99.90
2489;DHT22;1255;48.716;9.124;2023-05-15T07:45:00;15.90;99.90
2489;DHT22;1255;48.716;9.124;2023-05-15T07:47:26;15.90;99.90
2489;DHT22;1255;48.716;9.124;2023-05-15T07:49:53;16.00;99.90
2489;DHT22;1255;48.716;9.124;2023-05-15T07:52:20;16.00;99.90
2489;DHT22;1255;48.716;9.124;2023-05-15T07:54:47;16.10;99.90
2489;DHT22;1255;48.716;9.124;2023-05-15T07:57:15;16.00;99.90
2489;DHT22;1255;48.716;9.124;2023-05-15T07:59:41;16.00;99.90
2489;DHT22;1255;48.716;9.124;2023-05-15T08:02:08;16.10;99.90
2489;DHT22;1255;48.716;9.124;2023-05-15T08:04:35;16.20;99.90
2489;DHT22;1255;48.716;9.124;2023-05-15T08:07:02;16.30;99.90
2489;DHT22;1255;48.716;9.124;2023-05-15T08:09:28;16.40;99.90
2489;DHT22;1255;48.716;9.124;2023-05-15T08:11:55;16.40;99.90
2489;DHT22;1255;48.716;9.124;2023-05-15T08:14:23;16.60;99.90
2489;DHT22;1255;48.716;9.124;2023-05-15T08:16:50;16.70;99.90
2489;DHT22;1255;48.716;9.124;2023-05-15T08:19:17;17.00;99.90
2489;DHT22;1255;48.716;9.124;2023-05-15T08:21:43;17.20;99.90
2489;DHT22;1255;48.716;9.124;2023-05-15T08:24:10;17.30;99.90
2489;DHT22;1255;48.716;9.124;2023-05-15T08:26:37;17.60;99.90
2489;DHT22;1255;48.716;9.124;2023-05-15T08:29:04;17.90;99.90
2489;DHT22;1255;48.716;9.124;2023-05-15T08:31:32;18.10;99.90
2489;DHT22;1255;48.716;9.124;2023-05-15T08:33:58;18.30;99.90
2489;DHT22;1255;48.716;9.124;2023-05-15T08:36:25;18.40;99.90
2489;DHT22;1255;48.716;9.124;2023-05-15T08:38:52;18.40;99.90
2489;DHT22;1255;48.716;9.124;2023-05-15T08:41:27;18.60;99.90
2489;DHT22;1255;48.716;9.124;2023-05-15T08:43:56;18.70;99.90
2489;DHT22;1255;48.716;9.124;2023-05-15T08:46:23;18.70;99.90
2489;DHT22;1255;48.716;9.124;2023-05-15T08:48:52;18.40;99.90
2489;DHT22;1255;48.716;9.124;2023-05-15T08:51:20;18.40;99.90
2489;DHT22;1255;48.716;9.124;2023-05-15T08:53:47;18.50;99.90
2489;DHT22;1255;48.716;9.124;2023-05-15T08:56:15;18.80;99.90
2489;DHT22;1255;48.716;9.124;2023-05-15T08:58:43;18.90;99.90
2489;DHT22;1255;48.716;9.124;2023-05-15T09:01:11;18.90;99.90
2489;DHT22;1255;48.716;9.124;2023-05-15T09:03:38;18.90;99.90
2489;DHT22;1255;48.716;9.124;2023-05-15T09:06:08;18.90;99.90
2489;DHT22;1255;48.716;9.124;2023-05-15T09:08:35;19.20;99.90
2489;DHT22;1255;48.716;9.124;2023-05-15T09:11:03;19.70;99.90
2489;DHT22;1255;48.716;9.124;2023-05-15T09:13:32;19.90;99.90
2489;DHT22;1255;48.716;9.124;2023-05-15T09:15:59;20.10;99.90
2489;DHT22;1255;48.716;9.124;2023-05-15T09:18:26;20.00;99.90
2489;DHT22;1255;48.716;9.124;2023-05-15T09:20:53;19.80;99.90
2489;DHT22;1255;48.716;9.124;2023-05-15T09:23:25;20.10;99.90
2489;DHT22;1255;48.716;9.124;2023-05-15T09:25:53;20.20;99.90
2489;DHT22;1255;48.716;9.124;2023-05-15T09:28:26;20.40;99.90
2489;DHT22;1255;48.716;9.124;2023-05-15T09:30:57;20.90;99.90
2489;DHT22;1255;48.716;9.124;2023-05-15T09:33:30;21.30;99.90
2489;DHT22;1255;48.716;9.124;2023-05-15T09:35:57;21.70;99.90
2489;DHT22;1255;48.716;9.124;2023-05-15T09:38:25;21.80;99.90
2489;DHT22;1255;48.716;9.124;2023-05-15T09:41:00;21.30;99.90
2489;DHT22;1255;48.716;9.124;2023-05-15T09:43:28;20.50;99.90
2489;DHT22;1255;48.716;9.124;2023-05-15T09:45:55;19.50;99.90
2489;DHT22;1255;48.716;9.124;2023-05-15T09:48:23;18.90;99.90
2489;DHT22;1255;48.716;9.124;2023-05-15T09:50:50;18.50;99.90
2489;DHT22;1255;48.716;9.124;2023-05-15T09:53:17;18.10;99.90
2489;DHT22;1255;48.716;9.124;2023-05-15T09:55:47;17.80;99.90
2489;DHT22;1255;48.716;9.124;2023-05-15T09:58:15;17.80;99.90
2489;DHT22;1255;48.716;9.124;2023-05-15T10:00:44;17.90;99.90
2489;DHT22;1255;48.716;9.124;2023-05-15T10:03:12;18.40;99.90
2489;DHT22;1255;48.716;9.124;2023-05-15T10:05:39;19.20;99.90
2489;DHT22;1255;48.716;9.124;2023-05-15T10:08:06;20.10;99.90
2489;DHT22;1255;48.716;9.124;2023-05-15T10:10:34;20.90;99.90
2489;DHT22;1255;48.716;9.124;2023-05-15T10:13:03;21.50;99.90
2489;DHT22;1255;48.716;9.124;2023-05-15T10:15:31;22.20;99.90
2489;DHT22;1255;48.716;9.124;2023-05-15T10:17:58;22.80;99.90
2489;DHT22;1255;48.716;9.124;2023-05-15T10:20:26;23.40;99.90
2489;DHT22;1255;48.716;9.124;2023-05-15T10:22:54;23.60;99.90
2489;DHT22;1255;48.716;9.124;2023-05-15T10:25:26;23.10;99.90
2489;DHT22;1255;48.716;9.124;2023-05-15T10:27:58;22.40;99.90
2489;DHT22;1255;48.716;9.124;2023-05-15T10:30:27;21.80;99.90
2489;DHT22;1255;48.716;9.124;2023-05-15T10:32:55;21.70;99.90
2489;DHT22;1255;48.716;9.124;2023-05-15T10:35:22;22.10;99.90
2489;DHT22;1255;48.716;9.124;2023-05-15T10:37:49;22.60;99.90
2489;DHT22;1255;48.716;9.124;2023-05-15T10:40:16;23.20;99.90
2489;DHT22;1255;48.716;9.124;2023-05-15T10:42:45;23.80;99.90
2489;DHT22;1255;48.716;9.124;2023-05-15T10:45:12;24.60;99.90
2489;DHT22;1255;48.716;9.124;2023-05-15T10:47:41;25.30;99.90
2489;DHT22;1255;48.716;9.124;2023-05-15T10:50:11;25.10;99.20
2489;DHT22;1255;48.716;9.124;2023-05-15T10:52:38;24.30;98.40
2489;DHT22;1255;48.716;9.124;2023-05-15T10:55:07;23.30;97.80
2489;DHT22;1255;48.716;9.124;2023-05-15T10:57:34;22.80;99.90
2489;DHT22;1255;48.716;9.124;2023-05-15T11:00:01;22.40;99.80
2489;DHT22;1255;48.716;9.124;2023-05-15T11:02:30;21.90;99.90
2489;DHT22;1255;48.716;9.124;2023-05-15T11:05:05;21.50;99.90
2489;DHT22;1255;48.716;9.124;2023-05-15T11:07:32;21.30;99.90
2489;DHT22;1255;48.716;9.124;2023-05-15T11:09:59;21.90;99.90
2489;DHT22;1255;48.716;9.124;2023-05-15T11:12:55;22.90;99.90
2489;DHT22;1255;48.716;9.124;2023-05-15T11:15:22;24.00;98.10
2489;DHT22;1255;48.716;9.124;2023-05-15T11:18:03;24.60;97.70
2489;DHT22;1255;48.716;9.124;2023-05-15T11:20:37;25.50;97.40
2489;DHT22;1255;48.716;9.124;2023-05-15T11:23:04;25.90;96.80
2489;DHT22;1255;48.716;9.124;2023-05-15T11:25:32;25.80;94.10
2489;DHT22;1255;48.716;9.124;2023-05-15T11:27:59;26.30;96.10
2489;DHT22;1255;48.716;9.124;2023-05-15T11:30:35;26.50;94.10
2489;DHT22;1255;48.716;9.124;2023-05-15T11:33:03;26.40;96.00
2489;DHT22;1255;48.716;9.124;2023-05-15T11:35:36;25.50;94.30
2489;DHT22;1255;48.716;9.124;2023-05-15T11:38:04;24.70;95.10
2489;DHT22;1255;48.716;9.124;2023-05-15T11:40:43;23.90;95.80
2489;DHT22;1255;48.716;9.124;2023-05-15T11:43:16;23.10;96.20
2489;DHT22;1255;48.716;9.124;2023-05-15T11:45:46;22.90;96.80
2489;DHT22;1255;48.716;9.124;2023-05-15T11:48:14;22.50;96.30
2489;DHT22;1255;48.716;9.124;2023-05-15T11:50:44;22.80;97.20
2489;DHT22;1255;48.716;9.124;2023-05-15T11:53:12;23.20;96.20
2489;DHT22;1255;48.716;9.124;2023-05-15T11:55:40;23.80;95.30
2489;DHT22;1255;48.716;9.124;2023-05-15T11:58:11;24.40;95.50
2489;DHT22;1255;48.716;9.124;2023-05-15T12:00:38;24.60;93.80
2489;DHT22;1255;48.716;9.124;2023-05-15T12:03:05;24.00;93.90
2489;DHT22;1255;48.716;9.124;2023-05-15T12:05:32;23.20;94.90
2489;DHT22;1255;48.716;9.124;2023-05-15T12:08:00;22.60;96.00
2489;DHT22;1255;48.716;9.124;2023-05-15T12:10:29;22.10;96.40
2489;DHT22;1255;48.716;9.124;2023-05-15T12:12:57;22.00;96.70
2489;DHT22;1255;48.716;9.124;2023-05-15T12:15:25;22.30;98.00
2489;DHT22;1255;48.716;9.124;2023-05-15T12:17:52;23.00;97.40
2489;DHT22;1255;48.716;9.124;2023-05-15T12:20:18;24.10;97.40
2489;DHT22;1255;48.716;9.124;2023-05-15T12:22:45;25.10;97.60
2489;DHT22;1255;48.716;9.124;2023-05-15T12:25:14;25.80;95.50
2489;DHT22;1255;48.716;9.124;2023-05-15T12:27:42;25.60;93.40
2489;DHT22;1255;48.716;9.124;2023-05-15T12:30:11;25.00;94.10
2489;DHT22;1255;48.716;9.124;2023-05-15T12:32:39;24.70;95.40
2489;DHT22;1255;48.716;9.124;2023-05-15T12:35:07;24.50;94.30
2489;DHT22;1255;48.716;9.124;2023-05-15T12:37:36;23.90;93.80
2489;DHT22;1255;48.716;9.124;2023-05-15T12:40:04;23.30;94.50
2489;DHT22;1255;48.716;9.124;2023-05-15T12:42:39;22.60;95.40
2489;DHT22;1255;48.716;9.124;2023-05-15T12:45:12;22.10;95.40
2489;DHT22;1255;48.716;9.124;2023-05-15T12:47:40;21.70;96.30
2489;DHT22;1255;48.716;9.124;2023-05-15T12:50:12;21.50;96.70
2489;DHT22;1255;48.716;9.124;2023-05-15T12:52:40;21.30;96.20
2489;DHT22;1255;48.716;9.124;2023-05-15T12:55:15;21.40;96.50
2489;DHT22;1255;48.716;9.124;2023-05-15T12:57:43;21.50;96.50
2489;DHT22;1255;48.716;9.124;2023-05-15T13:00:11;22.10;97.60
2489;DHT22;1255;48.716;9.124;2023-05-15T13:02:42;22.60;96.30
2489;DHT22;1255;48.716;9.124;2023-05-15T13:05:09;22.50;95.20
2489;DHT22;1255;48.716;9.124;2023-05-15T13:07:36;22.20;95.20
2489;DHT22;1255;48.716;9.124;2023-05-15T13:10:07;22.00;95.50
2489;DHT22;1255;48.716;9.124;2023-05-15T13:12:35;22.00;97.40
2489;DHT22;1255;48.716;9.124;2023-05-15T13:15:04;21.90;96.60
2489;DHT22;1255;48.716;9.124;2023-05-15T13:17:31;22.10;95.70
2489;DHT22;1255;48.716;9.124;2023-05-15T13:19:59;22.20;95.90
2489;DHT22;1255;48.716;9.124;2023-05-15T13:22:26;22.00;95.70
2489;DHT22;1255;48.716;9.124;2023-05-15T13:24:52;21.70;97.30
2489;DHT22;1255;48.716;9.124;2023-05-15T13:27:19;21.30;97.30
2489;DHT22;1255;48.716;9.124;2023-05-15T13:29:46;20.80;97.70
2489;DHT22;1255;48.716;9.124;2023-05-15T13:32:14;20.70;99.40
2489;DHT22;1255;48.716;9.124;2023-05-15T13:34:40;20.80;98.60
2489;DHT22;1255;48.716;9.124;2023-05-15T13:37:07;21.30;99.90
2489;DHT22;1255;48.716;9.124;2023-05-15T13:39:34;21.80;98.50
2489;DHT22;1255;48.716;9.124;2023-05-15T13:42:01;22.20;98.00
2489;DHT22;1255;48.716;9.124;2023-05-15T13:44:27;22.60;99.10
2489;DHT22;1255;48.716;9.124;2023-05-15T13:46:54;22.90;97.50
2489;DHT22;1255;48.716;9.124;2023-05-15T13:49:22;22.90;97.70
2489;DHT22;1255;48.716;9.124;2023-05-15T13:51:49;22.70;97.50
2489;DHT22;1255;48.716;9.124;2023-05-15T13:54:15;22.10;96.80
2489;DHT22;1255;48.716;9.124;2023-05-15T13:56:42;21.60;97.70
2489;DHT22;1255;48.716;9.124;2023-05-15T13:59:09;21.20;97.80
2489;DHT22;1255;48.716;9.124;2023-05-15T14:01:36;20.90;98.50
2489;DHT22;1255;48.716;9.124;2023-05-15T14:04:02;20.40;98.40
2489;DHT22;1255;48.716;9.124;2023-05-15T14:06:30;20.00;98.50
2489;DHT22;1255;48.716;9.124;2023-05-15T14:08:57;19.80;99.00
2489;DHT22;1255;48.716;9.124;2023-05-15T14:11:24;19.40;99.30
2489;DHT22;1255;48.716;9.124;2023-05-15T14:13:50;19.20;99.90
2489;DHT22;1255;48.716;9.124;2023-05-15T14:16:17;19.00;99.90
2489;DHT22;1255;48.716;9.124;2023-05-15T14:18:44;18.90;99.90
2489;DHT22;1255;48.716;9.124;2023-05-15T14:21:10;18.70;99.90
2489;DHT22;1255;48.716;9.124;2023-05-15T14:23:39;18.60;99.90
2489;DHT22;1255;48.716;9.124;2023-05-15T14:26:05;18.60;99.90
2489;DHT22;1255;48.716;9.124;2023-05-15T14:28:32;18.50;99.90
2489;DHT22;1255;48.716;9.124;2023-05-15T14:30:59;18.50;99.90
2489;DHT22;1255;48.716;9.124;2023-05-15T14:33:26;18.60;99.90
2489;DHT22;1255;48.716;9.124;2023-05-15T14:35:53;18.90;99.90
2489;DHT22;1255;48.716;9.124;2023-05-15T14:38:20;19.40;99.90
2489;DHT22;1255;48.716;9.124;2023-05-15T14:40:48;19.70;99.90
2489;DHT22;1255;48.716;9.124;2023-05-15T14:43:14;20.00;99.90
2489;DHT22;1255;48.716;9.124;2023-05-15T14:45:41;19.90;99.90
2489;DHT22;1255;48.716;9.124;2023-05-15T14:48:08;19.70;99.90
2489;DHT22;1255;48.716;9.124;2023-05-15T14:50:36;19.50;99.90
2489;DHT22;1255;48.716;9.124;2023-05-15T14:53:03;19.40;99.90
2489;DHT22;1255;48.716;9.124;2023-05-15T14:55:30;19.20;99.90
2489;DHT22;1255;48.716;9.124;2023-05-15T14:57:59;19.00;99.90
2489;DHT22;1255;48.716;9.124;2023-05-15T15:00:26;18.80;99.90
2489;DHT22;1255;48.716;9.124;2023-05-15T15:02:53;18.70;99.90
2489;DHT22;1255;48.716;9.124;2023-05-15T15:05:20;18.50;99.90
2489;DHT22;1255;48.716;9.124;2023-05-15T15:08:03;18.40;99.90
2489;DHT22;1255;48.716;9.124;2023-05-15T15:10:31;18.20;99.90
2489;DHT22;1255;48.716;9.124;2023-05-15T15:12:59;18.10;99.90
2489;DHT22;1255;48.716;9.124;2023-05-15T15:15:27;18.10;99.90
2489;DHT22;1255;48.716;9.124;2023-05-15T15:17:54;18.10;99.90
2489;DHT22;1255;48.716;9.124;2023-05-15T15:20:21;18.10;99.90
2489;DHT22;1255;48.716;9.124;2023-05-15T15:22:49;18.10;99.90
2489;DHT22;1255;48.716;9.124;2023-05-15T15:25:16;17.90;99.90
2489;DHT22;1255;48.716;9.124;2023-05-15T15:27:43;17.80;99.90
2489;DHT22;1255;48.716;9.124;2023-05-15T15:30:12;17.70;99.90
2489;DHT22;1255;48.716;9.124;2023-05-15T15:32:41;17.60;99.90
2489;DHT22;1255;48.716;9.124;2023-05-15T15:35:08;17.40;99.90
2489;DHT22;1255;48.716;9.124;2023-05-15T15:37:35;17.30;99.90
2489;DHT22;1255;48.716;9.124;2023-05-15T15:40:05;17.20;99.90
2489;DHT22;1255;48.716;9.124;2023-05-15T15:42:32;17.10;99.90
2489;DHT22;1255;48.716;9.124;2023-05-15T15:45:00;16.90;99.90
2489;DHT22;1255;48.716;9.124;2023-05-15T15:47:28;16.90;99.90
2489;DHT22;1255;48.716;9.124;2023-05-15T15:49:56;16.70;99.90
2489;DHT22;1255;48.716;9.124;2023-05-15T15:52:23;16.60;99.90
2489;DHT22;1255;48.716;9.124;2023-05-15T15:54:50;16.60;99.90
2489;DHT22;1255;48.716;9.124;2023-05-15T15:57:18;16.50;99.90
2489;DHT22;1255;48.716;9.124;2023-05-15T15:59:45;16.40;99.90
2489;DHT22;1255;48.716;9.124;2023-05-15T16:02:12;16.30;99.90
2489;DHT22;1255;48.716;9.124;2023-05-15T16:04:40;16.30;99.90
2489;DHT22;1255;48.716;9.124;2023-05-15T16:07:07;16.20;99.90
2489;DHT22;1255;48.716;9.124;2023-05-15T16:09:35;16.20;99.90